sensor_id;sensor_type;location;lat;lon;timestamp;P1;durP1;ratioP1;P2;durP2;ratioP2
3627;SDS011;1830;49.000;12.074;2023-07-20T00:01:52;8.53;;;4.70;;
3627;SDS011;1830;49.000;12.074;2023-07-20T00:04:19;11.17;;;6.43;;
3627;SDS011;1830;49.000;12.074;2023-07-20T00:06:45;13.23;;;4.53;;
3627;SDS011;1830;49.000;12.074;2023-07-20T00:09:12;6.00;;;4.23;;
3627;SDS011;1830;49.000;12.074;2023-07-20T00:11:47;13.30;;;5.00;;
3627;SDS011;1830;49.000;12.074;2023-07-20T00:14:15;5.53;;;4.17;;
3627;SDS011;1830;49.000;12.074;2023-07-20T00:16:43;5.87;;;4.70;;
3627;SDS011;1830;49.000;12.074;2023-07-20T00:19:09;8.60;;;4.33;;
3627;SDS011;1830;49.000;12.074;2023-07-20T00:21:36;8.13;;;4.80;;
3627;SDS011;1830;49.000;12.074;2023-07-20T00:24:05;5.40;;;3.73;;
3627;SDS011;1830;49.000;12.074;2023-07-20T00:26:32;8.27;;;4.50;;
3627;SDS011;1830;49.000;12.074;2023-07-20T00:29:00;4.83;;;4.33;;
3627;SDS011;1830;49.000;12.074;2023-07-20T00:31:27;14.07;;;5.10;;
3627;SDS011;1830;49.000;12.074;2023-07-20T00:33:54;8.70;;;4.80;;
3627;SDS011;1830;49.000;12.074;2023-07-20T00:36:21;8.10;;;4.90;;
3627;SDS011;1830;49.000;12.074;2023-07-20T00:38:47;5.23;;;4.60;;
3627;SDS011;1830;49.000;12.074;2023-07-20T00:41:14;10.17;;;5.70;;
3627;SDS011;1830;49.000;12.074;2023-07-20T00:43:41;11.03;;;5.10;;
3627;SDS011;1830;49.000;12.074;2023-07-20T00:46:09;7.03;;;5.10;;
3627;SDS011;1830;49.000;12.074;2023-07-20T00:48:36;11.27;;;5.37;;
3627;SDS011;1830;49.000;12.074;2023-07-20T00:51:06;12.03;;;4.40;;
3627;SDS011;1830;49.000;12.074;2023-07-20T00:53:33;7.87;;;4.50;;
3627;SDS011;1830;49.000;12.074;2023-07-20T00:56:00;7.60;;;5.00;;
3627;SDS011;1830;49.000;12.074;2023-07-20T00:58:28;6.03;;;4.60;;
3627;SDS011;1830;49.000;12.074;2023-07-20T01:00:55;11.40;;;4.90;;
3627;SDS011;1830;49.000;12.074;2023-07-20T01:03:23;6.70;;;5.00;;
3627;SDS011;1830;49.000;12.074;2023-07-20T01:05:51;8.17;;;4.80;;
3627;SDS011;1830;49.000;12.074;2023-07-20T01:08:24;6.53;;;4.70;;
3627;SDS011;1830;49.000;12.074;2023-07-20T01:10:59;5.47;;;4.40;;
3627;SDS011;1830;49.000;12.074;2023-07-20T01:13:32;7.97;;;4.70;;
3627;SDS011;1830;49.000;12.074;2023-07-20T01:16:00;7.70;;;4.53;;
3627;SDS011;1830;49.000;12.074;2023-07-20T01:18:28;10.43;;;5.73;;
3627;SDS011;1830;49.000;12.074;2023-07-20T01:20:57;6.20;;;4.97;;
3627;SDS011;1830;49.000;12.074;2023-07-20T01:23:34;11.60;;;5.10;;
3627;SDS011;1830;49.000;12.074;2023-07-20T01:26:35;6.70;;;5.40;;
3627;SDS011;1830;49.000;12.074;2023-07-20T01:29:22;5.37;;;4.80;;
3627;SDS011;1830;49.000;12.074;2023-07-20T01:31:59;7.00;;;5.27;;
3627;SDS011;1830;49.000;12.074;2023-07-20T01:34:28;11.20;;;4.47;;
3627;SDS011;1830;49.000;12.074;2023-07-20T01:36:56;5.90;;;4.60;;
3627;SDS011;1830;49.000;12.074;2023-07-20T01:39:23;9.87;;;5.20;;
3627;SDS011;1830;49.000;12.074;2023-07-20T01:41:50;5.47;;;4.63;;
3627;SDS011;1830;49.000;12.074;2023-07-20T01:44:17;7.63;;;4.77;;
3627;SDS011;1830;49.000;12.074;2023-07-20T01:46:44;7.23;;;4.50;;
3627;SDS011;1830;49.000;12.074;2023-07-20T01:49:12;6.57;;;4.63;;
3627;SDS011;1830;49.000;12.074;2023-07-20T01:51:39;7.93;;;4.70;;
3627;SDS011;1830;49.000;12.074;2023-07-20T01:54:06;7.50;;;4.63;;
3627;SDS011;1830;49.000;12.074;2023-07-20T01:56:32;8.87;;;4.77;;
3627;SDS011;1830;49.000;12.074;2023-07-20T01:58:59;5.70;;;4.30;;
3627;SDS011;1830;49.000;12.074;2023-07-20T02:01:26;6.17;;;4.50;;
3627;SDS011;1830;49.000;12.074;2023-07-20T02:03:54;8.13;;;4.30;;
3627;SDS011;1830;49.000;12.074;2023-07-20T02:06:22;6.77;;;4.63;;
3627;SDS011;1830;49.000;12.074;2023-07-20T02:08:49;8.50;;;4.30;;
3627;SDS011;1830;49.000;12.074;2023-07-20T02:11:15;7.70;;;4.27;;
3627;SDS011;1830;49.000;12.074;2023-07-20T02:13:42;7.33;;;4.30;;
3627;SDS011;1830;49.000;12.074;2023-07-20T02:16:09;7.00;;;4.93;;
3627;SDS011;1830;49.000;12.074;2023-07-20T02:18:36;8.43;;;4.40;;
3627;SDS011;1830;49.000;12.074;2023-07-20T02:21:03;7.20;;;4.97;;
3627;SDS011;1830;49.000;12.074;2023-07-20T02:23:31;6.97;;;4.97;;
3627;SDS011;1830;49.000;12.074;2023-07-20T02:25:58;12.60;;;5.90;;
3627;SDS011;1830;49.000;12.074;2023-07-20T02:28:24;9.83;;;4.40;;
3627;SDS011;1830;49.000;12.074;2023-07-20T02:30:51;5.37;;;4.47;;
3627;SDS011;1830;49.000;12.074;2023-07-20T02:33:18;5.87;;;5.10;;
3627;SDS011;1830;49.000;12.074;2023-07-20T02:35:46;5.83;;;4.53;;
3627;SDS011;1830;49.000;12.074;2023-07-20T02:38:13;5.83;;;4.90;;
3627;SDS011;1830;49.000;12.074;2023-07-20T02:40:41;7.97;;;5.03;;
3627;SDS011;1830;49.000;12.074;2023-07-20T02:43:08;6.73;;;5.00;;
3627;SDS011;1830;49.000;12.074;2023-07-20T02:45:35;6.80;;;5.00;;
3627;SDS011;1830;49.000;12.074;2023-07-20T02:48:06;6.13;;;4.57;;
3627;SDS011;1830;49.000;12.074;2023-07-20T02:50:33;16.63;;;5.60;;
3627;SDS011;1830;49.000;12.074;2023-07-20T02:53:00;5.63;;;4.73;;
3627;SDS011;1830;49.000;12.074;2023-07-20T02:55:27;6.50;;;4.37;;
3627;SDS011;1830;49.000;12.074;2023-07-20T02:57:55;8.43;;;6.03;;
3627;SDS011;1830;49.000;12.074;2023-07-20T03:00:22;8.43;;;5.03;;
3627;SDS011;1830;49.000;12.074;2023-07-20T03:02:49;11.67;;;4.27;;
3627;SDS011;1830;49.000;12.074;2023-07-20T03:05:20;7.90;;;4.70;;
3627;SDS011;1830;49.000;12.074;2023-07-20T03:07:47;6.47;;;5.73;;
3627;SDS011;1830;49.000;12.074;2023-07-20T03:10:15;4.20;;;3.80;;
3627;SDS011;1830;49.000;12.074;2023-07-20T03:12:42;5.03;;;4.30;;
3627;SDS011;1830;49.000;12.074;2023-07-20T03:15:10;6.83;;;5.20;;
3627;SDS011;1830;49.000;12.074;2023-07-20T03:17:37;4.80;;;4.30;;
3627;SDS011;1830;49.000;12.074;2023-07-20T03:20:04;5.30;;;4.17;;
3627;SDS011;1830;49.000;12.074;2023-07-20T03:22:34;10.73;;;4.67;;
3627;SDS011;1830;49.000;12.074;2023-07-20T03:25:01;6.67;;;4.57;;
3627;SDS011;1830;49.000;12.074;2023-07-20T03:27:28;5.40;;;3.47;;
3627;SDS011;1830;49.000;12.074;2023-07-20T03:29:54;5.93;;;4.20;;
3627;SDS011;1830;49.000;12.074;2023-07-20T03:32:22;4.97;;;4.47;;
3627;SDS011;1830;49.000;12.074;2023-07-20T03:34:49;6.40;;;4.70;;
3627;SDS011;1830;49.000;12.074;2023-07-20T03:37:16;4.27;;;3.87;;
3627;SDS011;1830;49.000;12.074;2023-07-20T03:39:43;7.97;;;4.37;;
3627;SDS011;1830;49.000;12.074;2023-07-20T03:42:09;6.50;;;4.60;;
3627;SDS011;1830;49.000;12.074;2023-07-20T03:44:36;5.00;;;3.80;;
3627;SDS011;1830;49.000;12.074;2023-07-20T03:47:04;4.40;;;3.90;;
3627;SDS011;1830;49.000;12.074;2023-07-20T03:49:33;9.93;;;4.10;;
3627;SDS011;1830;49.000;12.074;2023-07-20T03:52:00;4.53;;;3.90;;
3627;SDS011;1830;49.000;12.074;2023-07-20T03:54:28;3.70;;;3.40;;
3627;SDS011;1830;49.000;12.074;2023-07-20T03:56:55;8.30;;;4.20;;
3627;SDS011;1830;49.000;12.074;2023-07-20T03:59:22;5.63;;;4.10;;
3627;SDS011;1830;49.000;12.074;2023-07-20T04:01:48;9.50;;;5.10;;
3627;SDS011;1830;49.000;12.074;2023-07-20T04:04:15;6.03;;;4.27;;
3627;SDS011;1830;49.000;12.074;2023-07-20T04:06:44;4.83;;;4.33;;
3627;SDS011;1830;49.000;12.074;2023-07-20T04:09:11;5.77;;;4.37;;
3627;SDS011;1830;49.000;12.074;2023-07-20T04:11:38;7.83;;;3.70;;
3627;SDS011;1830;49.000;12.074;2023-07-20T04:14:05;9.90;;;4.90;;
3627;SDS011;1830;49.000;12.074;2023-07-20T04:16:32;10.50;;;5.00;;
3627;SDS011;1830;49.000;12.074;2023-07-20T04:18:59;7.60;;;4.00;;
3627;SDS011;1830;49.000;12.074;2023-07-20T04:21:29;7.43;;;4.77;;
3627;SDS011;1830;49.000;12.074;2023-07-20T04:23:57;24.30;;;4.97;;
3627;SDS011;1830;49.000;12.074;2023-07-20T04:26:24;6.77;;;4.33;;
3627;SDS011;1830;49.000;12.074;2023-07-20T04:28:50;10.70;;;4.83;;
3627;SDS011;1830;49.000;12.074;2023-07-20T04:31:17;5.37;;;4.20;;
3627;SDS011;1830;49.000;12.074;2023-07-20T04:33:44;5.90;;;4.30;;
3627;SDS011;1830;49.000;12.074;2023-07-20T04:36:11;15.03;;;4.60;;
3627;SDS011;1830;49.000;12.074;2023-07-20T04:38:39;7.40;;;4.00;;
3627;SDS011;1830;49.000;12.074;2023-07-20T04:41:08;14.17;;;4.03;;
3627;SDS011;1830;49.000;12.074;2023-07-20T04:43:35;5.60;;;3.70;;
3627;SDS011;1830;49.000;12.074;2023-07-20T04:46:01;14.10;;;4.50;;
3627;SDS011;1830;49.000;12.074;2023-07-20T04:48:28;10.40;;;3.70;;
3627;SDS011;1830;49.000;12.074;2023-07-20T04:50:55;6.33;;;3.40;;
3627;SDS011;1830;49.000;12.074;2023-07-20T04:53:22;4.40;;;4.00;;
3627;SDS011;1830;49.000;12.074;2023-07-20T04:55:49;11.40;;;4.10;;
3627;SDS011;1830;49.000;12.074;2023-07-20T04:58:21;7.83;;;3.73;;
3627;SDS011;1830;49.000;12.074;2023-07-20T05:00:48;8.50;;;3.87;;
3627;SDS011;1830;49.000;12.074;2023-07-20T05:03:15;5.30;;;4.20;;
3627;SDS011;1830;49.000;12.074;2023-07-20T05:05:42;5.90;;;3.60;;
3627;SDS011;1830;49.000;12.074;2023-07-20T05:08:09;5.70;;;3.77;;
3627;SDS011;1830;49.000;12.074;2023-07-20T05:10:35;9.03;;;4.77;;
3627;SDS011;1830;49.000;12.074;2023-07-20T05:13:02;11.90;;;4.13;;
3627;SDS011;1830;49.000;12.074;2023-07-20T05:15:32;12.00;;;4.40;;
3627;SDS011;1830;49.000;12.074;2023-07-20T05:17:59;6.07;;;4.07;;
3627;SDS011;1830;49.000;12.074;2023-07-20T05:20:26;9.43;;;4.53;;
3627;SDS011;1830;49.000;12.074;2023-07-20T05:22:53;13.23;;;4.57;;
3627;SDS011;1830;49.000;12.074;2023-07-20T05:25:19;8.47;;;4.60;;
3627;SDS011;1830;49.000;12.074;2023-07-20T05:27:47;15.73;;;4.93;;
3627;SDS011;1830;49.000;12.074;2023-07-20T05:30:15;7.10;;;4.33;;
3627;SDS011;1830;49.000;12.074;2023-07-20T05:32:44;7.20;;;4.43;;
3627;SDS011;1830;49.000;12.074;2023-07-20T05:35:12;19.80;;;5.37;;
3627;SDS011;1830;49.000;12.074;2023-07-20T05:37:40;19.70;;;4.90;;
3627;SDS011;1830;49.000;12.074;2023-07-20T05:40:08;10.50;;;4.53;;
3627;SDS011;1830;49.000;12.074;2023-07-20T05:42:37;10.20;;;5.00;;
3627;SDS011;1830;49.000;12.074;2023-07-20T05:45:04;9.57;;;4.63;;
3627;SDS011;1830;49.000;12.074;2023-07-20T05:47:32;84.43;;;9.20;;
3627;SDS011;1830;49.000;12.074;2023-07-20T05:50:00;9.93;;;5.60;;
3627;SDS011;1830;49.000;12.074;2023-07-20T05:52:28;17.53;;;7.13;;
3627;SDS011;1830;49.000;12.074;2023-07-20T05:54:54;12.63;;;5.97;;
3627;SDS011;1830;49.000;12.074;2023-07-20T05:57:21;55.30;;;9.17;;
3627;SDS011;1830;49.000;12.074;2023-07-20T05:59:48;8.23;;;5.47;;
3627;SDS011;1830;49.000;12.074;2023-07-20T06:02:15;13.33;;;5.97;;
3627;SDS011;1830;49.000;12.074;2023-07-20T06:04:42;19.67;;;6.00;;
3627;SDS011;1830;49.000;12.074;2023-07-20T06:07:10;17.47;;;7.27;;
3627;SDS011;1830;49.000;12.074;2023-07-20T06:09:37;17.43;;;7.27;;
3627;SDS011;1830;49.000;12.074;2023-07-20T06:12:04;14.67;;;6.63;;
3627;SDS011;1830;49.000;12.074;2023-07-20T06:14:31;10.53;;;7.07;;
3627;SDS011;1830;49.000;12.074;2023-07-20T06:16:58;19.73;;;6.93;;
3627;SDS011;1830;49.000;12.074;2023-07-20T06:19:25;11.10;;;6.87;;
3627;SDS011;1830;49.000;12.074;2023-07-20T06:21:52;13.47;;;6.43;;
3627;SDS011;1830;49.000;12.074;2023-07-20T06:24:20;14.00;;;6.13;;
3627;SDS011;1830;49.000;12.074;2023-07-20T06:26:46;8.00;;;6.50;;
3627;SDS011;1830;49.000;12.074;2023-07-20T06:29:13;13.77;;;6.30;;
3627;SDS011;1830;49.000;12.074;2023-07-20T06:31:40;11.07;;;6.20;;
3627;SDS011;1830;49.000;12.074;2023-07-20T06:34:07;10.60;;;6.50;;
3627;SDS011;1830;49.000;12.074;2023-07-20T06:36:33;11.63;;;6.33;;
3627;SDS011;1830;49.000;12.074;2023-07-20T06:39:00;12.73;;;6.03;;
3627;SDS011;1830;49.000;12.074;2023-07-20T06:41:28;9.03;;;6.03;;
3627;SDS011;1830;49.000;12.074;2023-07-20T06:43:55;4.47;;;4.10;;
3627;SDS011;1830;49.000;12.074;2023-07-20T06:46:23;15.03;;;6.40;;
3627;SDS011;1830;49.000;12.074;2023-07-20T06:48:51;7.00;;;5.83;;
3627;SDS011;1830;49.000;12.074;2023-07-20T06:51:18;8.60;;;6.10;;
3627;SDS011;1830;49.000;12.074;2023-07-20T06:53:45;6.90;;;5.53;;
3627;SDS011;1830;49.000;12.074;2023-07-20T06:56:12;8.43;;;4.97;;
3627;SDS011;1830;49.000;12.074;2023-07-20T06:58:40;8.07;;;5.03;;
3627;SDS011;1830;49.000;12.074;2023-07-20T07:01:07;10.03;;;5.90;;
3627;SDS011;1830;49.000;12.074;2023-07-20T07:03:34;10.30;;;5.20;;
3627;SDS011;1830;49.000;12.074;2023-07-20T07:06:01;21.27;;;5.50;;
3627;SDS011;1830;49.000;12.074;2023-07-20T07:08:28;8.57;;;4.80;;
3627;SDS011;1830;49.000;12.074;2023-07-20T07:10:55;12.60;;;5.63;;
3627;SDS011;1830;49.000;12.074;2023-07-20T07:13:22;11.00;;;4.20;;
3627;SDS011;1830;49.000;12.074;2023-07-20T07:15:51;15.07;;;5.30;;
3627;SDS011;1830;49.000;12.074;2023-07-20T07:18:18;12.23;;;5.30;;
3627;SDS011;1830;49.000;12.074;2023-07-20T07:20:54;15.20;;;5.90;;
3627;SDS011;1830;49.000;12.074;2023-07-20T07:23:21;20.70;;;6.50;;
3627;SDS011;1830;49.000;12.074;2023-07-20T07:25:48;8.73;;;5.33;;
3627;SDS011;1830;49.000;12.074;2023-07-20T07:28:15;16.73;;;6.50;;
3627;SDS011;1830;49.000;12.074;2023-07-20T07:30:42;18.10;;;6.10;;
3627;SDS011;1830;49.000;12.074;2023-07-20T07:33:10;12.70;;;5.77;;
3627;SDS011;1830;49.000;12.074;2023-07-20T07:35:37;11.23;;;5.40;;
3627;SDS011;1830;49.000;12.074;2023-07-20T07:38:04;15.83;;;5.80;;
3627;SDS011;1830;49.000;12.074;2023-07-20T07:40:32;42.47;;;6.60;;
3627;SDS011;1830;49.000;12.074;2023-07-20T07:42:59;10.07;;;5.90;;
3627;SDS011;1830;49.000;12.074;2023-07-20T07:45:25;8.50;;;5.50;;
3627;SDS011;1830;49.000;12.074;2023-07-20T07:47:52;10.23;;;5.73;;
3627;SDS011;1830;49.000;12.074;2023-07-20T07:50:22;9.53;;;5.43;;
3627;SDS011;1830;49.000;12.074;2023-07-20T07:52:49;9.23;;;5.20;;
3627;SDS011;1830;49.000;12.074;2023-07-20T07:55:16;10.50;;;4.60;;
3627;SDS011;1830;49.000;12.074;2023-07-20T07:57:43;8.63;;;4.70;;
3627;SDS011;1830;49.000;12.074;2023-07-20T08:00:12;8.47;;;5.00;;
3627;SDS011;1830;49.000;12.074;2023-07-20T08:02:40;9.50;;;4.30;;
3627;SDS011;1830;49.000;12.074;2023-07-20T08:05:08;7.03;;;4.67;;
3627;SDS011;1830;49.000;12.074;2023-07-20T08:07:36;11.07;;;4.40;;
3627;SDS011;1830;49.000;12.074;2023-07-20T08:10:03;11.93;;;4.97;;
3627;SDS011;1830;49.000;12.074;2023-07-20T08:12:31;7.77;;;4.70;;
3627;SDS011;1830;49.000;12.074;2023-07-20T08:14:58;15.40;;;5.00;;
3627;SDS011;1830;49.000;12.074;2023-07-20T08:17:25;10.30;;;4.70;;
3627;SDS011;1830;49.000;12.074;2023-07-20T08:19:51;12.80;;;4.40;;
3627;SDS011;1830;49.000;12.074;2023-07-20T08:22:18;17.87;;;4.63;;
3627;SDS011;1830;49.000;12.074;2023-07-20T08:24:46;9.07;;;4.30;;
3627;SDS011;1830;49.000;12.074;2023-07-20T08:27:13;5.20;;;4.00;;
3627;SDS011;1830;49.000;12.074;2023-07-20T08:29:40;4.90;;;3.60;;
3627;SDS011;1830;49.000;12.074;2023-07-20T08:32:07;10.90;;;4.30;;
3627;SDS011;1830;49.000;12.074;2023-07-20T08:34:34;10.67;;;5.10;;
3627;SDS011;1830;49.000;12.074;2023-07-20T08:37:01;11.33;;;4.33;;
3627;SDS011;1830;49.000;12.074;2023-07-20T08:39:28;7.20;;;3.43;;
3627;SDS011;1830;49.000;12.074;2023-07-20T08:41:56;6.93;;;3.60;;
3627;SDS011;1830;49.000;12.074;2023-07-20T08:44:26;9.73;;;3.20;;
3627;SDS011;1830;49.000;12.074;2023-07-20T08:46:53;4.63;;;3.20;;
3627;SDS011;1830;49.000;12.074;2023-07-20T08:49:21;4.07;;;3.17;;
3627;SDS011;1830;49.000;12.074;2023-07-20T08:51:48;10.63;;;3.57;;
3627;SDS011;1830;49.000;12.074;2023-07-20T08:54:15;9.27;;;3.97;;
3627;SDS011;1830;49.000;12.074;2023-07-20T08:56:42;5.73;;;3.57;;
3627;SDS011;1830;49.000;12.074;2023-07-20T08:59:13;3.87;;;3.47;;
3627;SDS011;1830;49.000;12.074;2023-07-20T09:01:43;7.63;;;3.50;;
3627;SDS011;1830;49.000;12.074;2023-07-20T09:04:11;2.83;;;2.53;;
3627;SDS011;1830;49.000;12.074;2023-07-20T09:06:38;5.33;;;3.40;;
3627;SDS011;1830;49.000;12.074;2023-07-20T09:09:05;7.40;;;3.47;;
3627;SDS011;1830;49.000;12.074;2023-07-20T09:11:32;4.47;;;3.10;;
3627;SDS011;1830;49.000;12.074;2023-07-20T09:14:02;3.53;;;3.00;;
3627;SDS011;1830;49.000;12.074;2023-07-20T09:16:31;5.20;;;3.17;;
3627;SDS011;1830;49.000;12.074;2023-07-20T09:18:58;6.43;;;2.63;;
3627;SDS011;1830;49.000;12.074;2023-07-20T09:21:28;2.40;;;2.20;;
3627;SDS011;1830;49.000;12.074;2023-07-20T09:23:56;5.77;;;2.90;;
3627;SDS011;1830;49.000;12.074;2023-07-20T09:26:23;4.03;;;2.47;;
3627;SDS011;1830;49.000;12.074;2023-07-20T09:28:51;5.43;;;3.03;;
3627;SDS011;1830;49.000;12.074;2023-07-20T09:31:19;3.43;;;2.63;;
3627;SDS011;1830;49.000;12.074;2023-07-20T09:33:49;3.37;;;2.70;;
3627;SDS011;1830;49.000;12.074;2023-07-20T09:36:18;7.40;;;2.53;;
3627;SDS011;1830;49.000;12.074;2023-07-20T09:38:45;5.33;;;2.83;;
3627;SDS011;1830;49.000;12.074;2023-07-20T09:41:13;3.10;;;2.80;;
3627;SDS011;1830;49.000;12.074;2023-07-20T09:43:41;3.00;;;2.60;;
3627;SDS011;1830;49.000;12.074;2023-07-20T09:46:08;4.67;;;2.77;;
3627;SDS011;1830;49.000;12.074;2023-07-20T09:48:35;5.17;;;2.63;;
3627;SDS011;1830;49.000;12.074;2023-07-20T09:51:03;4.60;;;2.73;;
3627;SDS011;1830;49.000;12.074;2023-07-20T09:53:32;4.70;;;2.50;;
3627;SDS011;1830;49.000;12.074;2023-07-20T09:55:59;4.70;;;2.20;;
3627;SDS011;1830;49.000;12.074;2023-07-20T09:58:26;9.57;;;2.80;;
3627;SDS011;1830;49.000;12.074;2023-07-20T10:00:54;4.23;;;3.13;;
3627;SDS011;1830;49.000;12.074;2023-07-20T10:03:25;3.70;;;2.80;;
3627;SDS011;1830;49.000;12.074;2023-07-20T10:05:57;12.07;;;2.70;;
3627;SDS011;1830;49.000;12.074;2023-07-20T10:08:30;8.73;;;3.03;;
3627;SDS011;1830;49.000;12.074;2023-07-20T10:10:59;8.80;;;2.93;;
3627;SDS011;1830;49.000;12.074;2023-07-20T10:13:28;4.27;;;2.50;;
3627;SDS011;1830;49.000;12.074;2023-07-20T10:15:58;5.30;;;2.70;;
3627;SDS011;1830;49.000;12.074;2023-07-20T10:18:35;5.03;;;3.13;;
3627;SDS011;1830;49.000;12.074;2023-07-20T10:21:16;5.20;;;2.30;;
3627;SDS011;1830;49.000;12.074;2023-07-20T10:23:45;5.13;;;2.63;;
3627;SDS011;1830;49.000;12.074;2023-07-20T10:26:12;4.30;;;2.83;;
3627;SDS011;1830;49.000;12.074;2023-07-20T10:28:41;4.50;;;3.00;;
3627;SDS011;1830;49.000;12.074;2023-07-20T10:31:08;3.23;;;2.70;;
3627;SDS011;1830;49.000;12.074;2023-07-20T10:33:36;3.00;;;2.47;;
3627;SDS011;1830;49.000;12.074;2023-07-20T10:36:04;3.73;;;3.43;;
3627;SDS011;1830;49.000;12.074;2023-07-20T10:38:38;4.03;;;3.27;;
3627;SDS011;1830;49.000;12.074;2023-07-20T10:41:16;5.70;;;3.13;;
3627;SDS011;1830;49.000;12.074;2023-07-20T10:43:44;3.63;;;2.40;;
3627;SDS011;1830;49.000;12.074;2023-07-20T10:46:12;7.03;;;2.53;;
3627;SDS011;1830;49.000;12.074;2023-07-20T10:48:58;3.73;;;2.60;;
3627;SDS011;1830;49.000;12.074;2023-07-20T10:51:25;5.87;;;2.90;;
3627;SDS011;1830;49.000;12.074;2023-07-20T10:53:52;4.03;;;2.63;;
3627;SDS011;1830;49.000;12.074;2023-07-20T10:56:23;10.13;;;3.00;;
3627;SDS011;1830;49.000;12.074;2023-07-20T10:58:55;4.63;;;2.20;;
3627;SDS011;1830;49.000;12.074;2023-07-20T11:01:27;10.70;;;3.20;;
3627;SDS011;1830;49.000;12.074;2023-07-20T11:03:57;5.00;;;3.03;;
3627;SDS011;1830;49.000;12.074;2023-07-20T11:06:31;14.03;;;2.37;;
3627;SDS011;1830;49.000;12.074;2023-07-20T11:09:03;5.87;;;2.50;;
3627;SDS011;1830;49.000;12.074;2023-07-20T11:11:33;6.20;;;2.75;;
3627;SDS011;1830;49.000;12.074;2023-07-20T11:14:01;3.45;;;2.38;;
3627;SDS011;1830;49.000;12.074;2023-07-20T11:16:38;10.23;;;3.23;;
3627;SDS011;1830;49.000;12.074;2023-07-20T11:19:13;4.75;;;2.50;;
3627;SDS011;1830;49.000;12.074;2023-07-20T11:21:42;4.87;;;2.60;;
3627;SDS011;1830;49.000;12.074;2023-07-20T11:24:10;3.40;;;2.33;;
3627;SDS011;1830;49.000;12.074;2023-07-20T11:26:46;9.50;;;2.50;;
3627;SDS011;1830;49.000;12.074;2023-07-20T11:29:14;5.45;;;2.80;;
3627;SDS011;1830;49.000;12.074;2023-07-20T11:31:43;4.40;;;2.25;;
3627;SDS011;1830;49.000;12.074;2023-07-20T11:34:11;3.30;;;2.38;;
3627;SDS011;1830;49.000;12.074;2023-07-20T11:36:39;3.85;;;2.28;;
3627;SDS011;1830;49.000;12.074;2023-07-20T11:39:07;3.35;;;2.60;;
3627;SDS011;1830;49.000;12.074;2023-07-20T11:41:35;8.02;;;2.88;;
3627;SDS011;1830;49.000;12.074;2023-07-20T11:44:04;5.00;;;2.40;;
3627;SDS011;1830;49.000;12.074;2023-07-20T11:46:32;4.43;;;2.10;;
3627;SDS011;1830;49.000;12.074;2023-07-20T11:49:00;14.77;;;2.85;;
3627;SDS011;1830;49.000;12.074;2023-07-20T11:51:28;4.13;;;2.60;;
3627;SDS011;1830;49.000;12.074;2023-07-20T11:53:57;2.38;;;2.17;;
3627;SDS011;1830;49.000;12.074;2023-07-20T11:56:25;3.60;;;2.67;;
3627;SDS011;1830;49.000;12.074;2023-07-20T11:58:54;7.13;;;2.75;;
3627;SDS011;1830;49.000;12.074;2023-07-20T12:01:25;13.68;;;3.83;;
3627;SDS011;1830;49.000;12.074;2023-07-20T12:03:54;10.95;;;3.00;;
3627;SDS011;1830;49.000;12.074;2023-07-20T12:06:22;3.90;;;2.75;;
3627;SDS011;1830;49.000;12.074;2023-07-20T12:08:50;5.63;;;2.40;;
3627;SDS011;1830;49.000;12.074;2023-07-20T12:11:30;9.88;;;2.95;;
3627;SDS011;1830;49.000;12.074;2023-07-20T12:13:57;3.90;;;3.60;;
3627;SDS011;1830;49.000;12.074;2023-07-20T12:16:27;9.38;;;4.03;;
3627;SDS011;1830;49.000;12.074;2023-07-20T12:18:59;5.10;;;2.38;;
3627;SDS011;1830;49.000;12.074;2023-07-20T12:21:26;5.20;;;2.90;;
3627;SDS011;1830;49.000;12.074;2023-07-20T12:23:53;3.22;;;2.60;;
3627;SDS011;1830;49.000;12.074;2023-07-20T12:26:22;6.60;;;2.67;;
3627;SDS011;1830;49.000;12.074;2023-07-20T12:28:50;6.15;;;2.90;;
3627;SDS011;1830;49.000;12.074;2023-07-20T12:31:17;10.73;;;4.97;;
3627;SDS011;1830;49.000;12.074;2023-07-20T12:33:45;2.58;;;2.38;;
3627;SDS011;1830;49.000;12.074;2023-07-20T12:36:12;5.25;;;2.20;;
3627;SDS011;1830;49.000;12.074;2023-07-20T12:38:39;4.57;;;2.40;;
3627;SDS011;1830;49.000;12.074;2023-07-20T12:41:07;3.20;;;2.78;;
3627;SDS011;1830;49.000;12.074;2023-07-20T12:43:37;3.33;;;2.83;;
3627;SDS011;1830;49.000;12.074;2023-07-20T12:46:05;3.00;;;2.40;;
3627;SDS011;1830;49.000;12.074;2023-07-20T12:48:32;6.30;;;2.42;;
3627;SDS011;1830;49.000;12.074;2023-07-20T12:51:00;6.47;;;2.75;;
3627;SDS011;1830;49.000;12.074;2023-07-20T12:53:27;8.30;;;2.22;;
3627;SDS011;1830;49.000;12.074;2023-07-20T12:55:53;2.90;;;2.55;;
3627;SDS011;1830;49.000;12.074;2023-07-20T12:58:20;14.23;;;2.90;;
3627;SDS011;1830;49.000;12.074;2023-07-20T13:00:47;5.97;;;2.53;;
3627;SDS011;1830;49.000;12.074;2023-07-20T13:03:14;3.25;;;2.33;;
3627;SDS011;1830;49.000;12.074;2023-07-20T13:05:43;5.57;;;2.50;;
3627;SDS011;1830;49.000;12.074;2023-07-20T13:08:11;3.25;;;2.30;;
3627;SDS011;1830;49.000;12.074;2023-07-20T13:10:38;3.95;;;2.35;;
3627;SDS011;1830;49.000;12.074;2023-07-20T13:13:05;3.70;;;2.05;;
3627;SDS011;1830;49.000;12.074;2023-07-20T13:15:40;2.30;;;2.10;;
3627;SDS011;1830;49.000;12.074;2023-07-20T13:18:07;4.25;;;2.17;;
3627;SDS011;1830;49.000;12.074;2023-07-20T13:20:34;5.15;;;2.13;;
3627;SDS011;1830;49.000;12.074;2023-07-20T13:23:01;4.05;;;2.72;;
3627;SDS011;1830;49.000;12.074;2023-07-20T13:25:29;3.83;;;2.25;;
3627;SDS011;1830;49.000;12.074;2023-07-20T13:27:56;2.47;;;1.88;;
3627;SDS011;1830;49.000;12.074;2023-07-20T13:30:23;7.53;;;2.10;;
3627;SDS011;1830;49.000;12.074;2023-07-20T13:32:49;1.98;;;1.52;;
3627;SDS011;1830;49.000;12.074;2023-07-20T13:35:16;6.10;;;2.10;;
3627;SDS011;1830;49.000;12.074;2023-07-20T13:37:43;7.68;;;2.00;;
3627;SDS011;1830;49.000;12.074;2023-07-20T13:40:10;2.63;;;1.83;;
3627;SDS011;1830;49.000;12.074;2023-07-20T13:42:39;4.85;;;2.00;;
3627;SDS011;1830;49.000;12.074;2023-07-20T13:45:06;4.32;;;1.80;;
3627;SDS011;1830;49.000;12.074;2023-07-20T13:47:34;3.65;;;2.05;;
3627;SDS011;1830;49.000;12.074;2023-07-20T13:50:00;2.90;;;1.95;;
3627;SDS011;1830;49.000;12.074;2023-07-20T13:52:27;3.13;;;1.80;;
3627;SDS011;1830;49.000;12.074;2023-07-20T13:54:54;7.20;;;2.00;;
3627;SDS011;1830;49.000;12.074;2023-07-20T13:57:21;2.10;;;1.90;;
3627;SDS011;1830;49.000;12.074;2023-07-20T13:59:49;3.75;;;2.10;;
3627;SDS011;1830;49.000;12.074;2023-07-20T14:02:15;6.60;;;2.63;;
3627;SDS011;1830;49.000;12.074;2023-07-20T14:04:42;2.33;;;2.10;;
3627;SDS011;1830;49.000;12.074;2023-07-20T14:07:09;7.03;;;2.20;;
3627;SDS011;1830;49.000;12.074;2023-07-20T14:09:36;14.75;;;2.33;;
3627;SDS011;1830;49.000;12.074;2023-07-20T14:12:03;2.50;;;1.92;;
3627;SDS011;1830;49.000;12.074;2023-07-20T14:14:30;2.28;;;2.08;;
3627;SDS011;1830;49.000;12.074;2023-07-20T14:16:58;2.60;;;2.13;;
3627;SDS011;1830;49.000;12.074;2023-07-20T14:19:25;4.50;;;2.65;;
3627;SDS011;1830;49.000;12.074;2023-07-20T14:21:52;4.15;;;2.15;;
3627;SDS011;1830;49.000;12.074;2023-07-20T14:24:20;10.60;;;2.53;;
3627;SDS011;1830;49.000;12.074;2023-07-20T14:26:46;4.53;;;2.58;;
3627;SDS011;1830;49.000;12.074;2023-07-20T14:29:14;5.57;;;2.03;;
3627;SDS011;1830;49.000;12.074;2023-07-20T14:31:40;13.52;;;2.30;;
3627;SDS011;1830;49.000;12.074;2023-07-20T14:34:08;6.85;;;2.05;;
3627;SDS011;1830;49.000;12.074;2023-07-20T14:36:35;7.65;;;2.15;;
3627;SDS011;1830;49.000;12.074;2023-07-20T14:39:02;7.90;;;2.00;;
3627;SDS011;1830;49.000;12.074;2023-07-20T14:41:30;2.15;;;1.90;;
3627;SDS011;1830;49.000;12.074;2023-07-20T14:43:56;4.40;;;2.38;;
3627;SDS011;1830;49.000;12.074;2023-07-20T14:46:23;3.10;;;2.15;;
3627;SDS011;1830;49.000;12.074;2023-07-20T14:48:50;2.58;;;1.83;;
3627;SDS011;1830;49.000;12.074;2023-07-20T14:51:19;2.05;;;1.65;;
3627;SDS011;1830;49.000;12.074;2023-07-20T14:53:46;2.42;;;2.22;;
3627;SDS011;1830;49.000;12.074;2023-07-20T14:56:12;3.35;;;2.00;;
3627;SDS011;1830;49.000;12.074;2023-07-20T14:58:39;5.70;;;2.30;;
3627;SDS011;1830;49.000;12.074;2023-07-20T15:01:06;3.42;;;2.00;;
3627;SDS011;1830;49.000;12.074;2023-07-20T15:03:33;3.33;;;2.00;;